Time;durP1;ratioP1;P1;durP2;ratioP2;P2;SDS_P1;SDS_P2;PMS_P1;PMS_P2;Temp;Humidity;BMP_temperature;BMP_pressure;BME280_temperature;BME280_humidity;BME280_pressure;Samples;Min_cycle;Max_cycle;Signal;HPM_P1;HPM_P2
2021/03/11 06:01:03;;;;;;;19.53;11.07;;;;;;;-1.81;74.17;99334.16;1815575;76;949092;-58
2021/03/11 06:03:33;;;;;;;22.77;12.47;;;;;;;-1.75;73.73;99325.94;1821560;77;21147;-61
2021/03/11 06:06:03;;;;;;;22.07;11.08;;;;;;;-1.76;73.53;99319.12;1749034;81;21133;-57
2021/03/11 06:08:34;;;;;;;20.50;11.20;;;;;;;-1.73;73.20;99325.34;1795187;78;21225;-57
2021/03/11 06:11:10;;;;;;;21.47;12.13;;;;;;;-1.71;73.06;99328.17;1817848;78;21252;-58
2021/03/11 06:13:40;;;;;;;20.90;11.07;;;;;;;-1.66;72.99;99325.24;1756114;80;21396;-60
2021/03/11 06:16:11;;;;;;;22.70;10.87;;;;;;;-1.61;72.87;99321.80;1742197;80;21196;-56
2021/03/11 06:18:41;;;;;;;22.10;11.80;;;;;;;-1.52;72.44;99323.69;1740985;80;21160;-58
2021/03/11 06:21:10;;;;;;;23.33;12.20;;;;;;;-1.42;72.40;99327.20;1782615;78;21318;-60
2021/03/11 06:23:41;;;;;;;24.17;12.87;;;;;;;-1.30;72.09;99324.59;1742912;81;21161;-57
2021/03/11 06:26:12;;;;;;;22.90;12.53;;;;;;;-1.10;71.24;99323.83;1731265;80;21140;-59
2021/03/11 06:28:52;;;;;;;23.93;12.73;;;;;;;-0.94;70.30;99316.96;1740204;80;21169;-56
2021/03/11 06:34:21;;;;;;;22.67;12.13;;;;;;;-0.61;68.78;99310.34;1756485;79;23138;-60
2021/03/11 06:36:51;;;;;;;25.13;12.53;;;;;;;-0.51;68.38;99323.85;1752864;80;21284;-55
2021/03/11 06:39:29;;;;;;;21.77;12.07;;;;;;;-0.37;67.79;99311.87;1753144;82;21696;-58
2021/03/11 06:42:02;;;;;;;22.07;12.30;;;;;;;-0.34;66.64;99309.04;1731673;80;21301;-56
2021/03/11 06:44:42;;;;;;;22.20;12.93;;;;;;;-0.46;66.97;99315.20;1710112;84;21663;-52
2021/03/11 06:47:14;;;;;;;22.73;12.93;;;;;;;-0.43;67.33;99317.08;1711437;82;21189;-52
2021/03/11 06:50:01;;;;;;;25.97;14.00;;;;;;;-0.36;66.95;99309.62;1712272;82;21161;-59
2021/03/11 06:52:31;;;;;;;24.30;13.33;;;;;;;-0.45;66.24;99319.46;1712880;84;21347;-62
2021/03/11 06:55:07;;;;;;;21.50;12.20;;;;;;;-0.52;66.46;99317.00;1661933;84;21172;-60
2021/03/11 06:57:40;;;;;;;25.10;14.73;;;;;;;-0.52;66.41;99329.48;1712908;84;21161;-60
2021/03/11 07:00:23;;;;;;;27.90;14.27;;;;;;;-0.49;66.49;99329.23;1706031;84;21189;-56
2021/03/11 07:02:56;;;;;;;24.90;14.30;;;;;;;-0.43;66.10;99338.28;1683165;84;21169;-53
2021/03/11 07:05:30;;;;;;;24.40;14.27;;;;;;;-0.43;66.07;99339.09;1681740;83;21199;-60
2021/03/11 07:08:08;;;;;;;26.23;14.33;;;;;;;-0.30;65.89;99346.20;1636302;85;21299;-56
2021/03/11 07:10:40;;;;;;;25.93;13.87;;;;;;;-0.27;65.72;99338.19;1713244;84;21577;-54
2021/03/11 07:13:12;;;;;;;27.02;14.65;;;;;;;-0.18;65.28;99339.17;1697365;84;21192;-57
2021/03/11 07:15:41;;;;;;;27.17;15.50;;;;;;;-0.22;65.40;99353.36;1682552;84;21175;-57
2021/03/11 07:18:22;;;;;;;23.70;14.37;;;;;;;-0.19;65.12;99342.72;1676646;84;21172;-60
2021/03/11 07:20:51;;;;;;;25.20;14.90;;;;;;;-0.09;65.23;99350.56;1650940;87;21181;-61
2021/03/11 07:23:22;;;;;;;26.10;15.20;;;;;;;-0.03;64.86;99353.94;1651530;87;21220;-56
2021/03/11 07:25:52;;;;;;;24.33;14.93;;;;;;;0.04;64.47;99359.42;1687435;84;21201;-58
2021/03/11 07:28:26;;;;;;;28.37;16.37;;;;;;;0.02;63.59;99349.19;1712839;84;21221;-53
2021/03/11 07:31:03;;;;;;;30.60;16.50;;;;;;;-0.09;63.83;99352.67;1712069;84;21405;-55
2021/03/11 07:33:35;;;;;;;28.37;16.60;;;;;;;-0.02;64.00;99364.64;1688316;83;21685;-54
2021/03/11 07:36:07;;;;;;;26.70;16.17;;;;;;;0.07;64.08;99362.59;1658229;84;21205;-53
2021/03/11 07:38:36;;;;;;;27.63;15.67;;;;;;;0.20;63.92;99370.16;1716361;82;21165;-52
2021/03/11 07:41:06;;;;;;;28.20;16.80;;;;;;;0.31;63.49;99368.78;1744696;82;21234;-55
2021/03/11 07:43:37;;;;;;;;;;;;;;;0.40;63.61;99368.45;1723951;82;21318;-51
2021/03/11 07:46:07;;;;;;;33.77;19.90;;;;;;;0.55;63.19;99361.97;1691309;84;20248;-54
2021/03/11 07:48:38;;;;;;;29.60;16.77;;;;;;;0.60;62.96;99363.70;1715199;84;21173;-51
2021/03/11 07:51:08;;;;;;;28.50;16.93;;;;;;;0.68;62.29;99366.44;1714882;83;21205;-56
2021/03/11 07:53:39;;;;;;;27.73;17.77;;;;;;;0.75;62.35;99372.77;1715172;84;21188;-54
2021/03/11 07:56:09;;;;;;;26.43;16.07;;;;;;;0.84;61.97;99376.81;1715063;83;21184;-54
2021/03/11 07:58:44;;;;;;;32.27;17.60;;;;;;;0.90;61.66;99371.08;1715297;84;21556;-54
2021/03/11 08:01:16;;;;;;;31.03;18.37;;;;;;;0.96;61.45;99377.86;1715209;82;21287;-56
2021/03/11 08:03:50;;;;;;;31.17;19.90;;;;;;;1.07;61.58;99387.31;1715238;82;21193;-53
2021/03/11 08:06:26;;;;;;;28.97;18.67;;;;;;;1.18;61.07;99382.00;1723095;82;21206;-55
2021/03/11 08:08:57;;;;;;;27.90;16.73;;;;;;;1.21;60.41;99383.04;1720329;82;21305;-56
2021/03/11 08:11:42;;;;;;;31.93;19.27;;;;;;;1.18;59.17;99371.61;1744872;82;21119;-55
2021/03/11 08:14:23;;;;;;;34.33;21.63;;;;;;;1.13;59.21;99380.28;1697334;84;21182;-60
2021/03/11 08:16:57;;;;;;;;;;;;;;;1.13;58.67;99372.48;1687469;84;21621;-51
2021/03/11 08:19:41;;;;;;;29.00;16.73;;;;;;;1.15;58.12;99372.34;1665246;86;20291;-50
2021/03/11 08:22:13;;;;;;;27.87;16.00;;;;;;;1.18;58.25;99382.00;1638856;87;21327;-52
2021/03/11 08:24:48;;;;;;;25.70;15.53;;;;;;;1.25;58.28;99364.91;1639070;87;21168;-59
2021/03/11 08:27:38;;;;;;;28.57;16.67;;;;;;;1.35;58.13;99367.52;1653470;84;21685;-62
2021/03/11 08:30:31;;;;;;;24.67;15.60;;;;;;;1.46;57.84;99369.17;1663960;86;21310;-71
2021/03/11 08:33:04;;;;;;;27.30;15.67;;;;;;;1.59;57.29;99373.12;1673514;84;21316;-65
2021/03/11 08:35:40;;;;;;;24.43;15.07;;;;;;;1.56;56.38;99373.89;1694042;84;21605;-60
2021/03/11 08:38:28;;;;;;;25.33;15.37;;;;;;;1.47;56.76;99371.62;1685705;84;21298;-63
2021/03/11 08:41:14;;;;;;;25.53;15.90;;;;;;;1.52;56.99;99369.92;1696206;84;21152;-56
2021/03/11 08:43:47;;;;;;;25.10;15.03;;;;;;;1.65;56.87;99379.55;1668301;84;21313;-53
2021/03/11 08:46:25;;;;;;;25.80;15.70;;;;;;;1.86;56.48;99372.41;1686289;84;21178;-57
2021/03/11 08:49:04;;;;;;;25.37;14.93;;;;;;;2.07;56.50;99372.25;1653898;84;21197;-57
2021/03/11 08:51:35;;;;;;;25.53;15.90;;;;;;;2.37;55.81;99366.47;1696707;84;21214;-66
2021/03/11 08:54:12;;;;;;;24.20;14.87;;;;;;;2.62;54.93;99369.70;1695780;84;21150;-58
2021/03/11 08:56:42;;;;;;;24.23;14.10;;;;;;;2.82;54.54;99371.75;1677075;84;21386;-55
2021/03/11 08:59:16;;;;;;;23.27;14.30;;;;;;;2.95;53.75;99372.69;1668291;84;21198;-62
2021/03/11 09:01:54;;;;;;;23.03;14.27;;;;;;;3.01;52.85;99367.38;1668450;86;21281;-59
2021/03/11 09:04:37;;;;;;;24.80;14.90;;;;;;;2.98;52.38;99366.36;1668375;86;22310;-60
2021/03/11 09:07:28;;;;;;;24.70;14.43;;;;;;;2.99;52.61;99373.23;1667898;86;21126;-65
2021/03/11 09:09:58;;;;;;;24.87;14.33;;;;;;;3.08;52.00;99365.34;1666671;86;21107;-60
2021/03/11 09:12:37;;;;;;;25.83;15.53;;;;;;;3.10;51.74;99359.52;1644111;86;21202;-57
2021/03/11 09:15:11;;;;;;;27.00;14.63;;;;;;;3.12;51.85;99369.78;1664843;84;21550;-61
2021/03/11 09:17:41;;;;;;;25.93;14.47;;;;;;;3.26;52.05;99368.44;1667981;86;21194;-61
2021/03/11 09:20:15;;;;;;;24.85;15.25;;;;;;;3.43;51.95;99368.44;1652875;84;21155;-58
2021/03/11 09:22:50;;;;;;;24.43;15.30;;;;;;;3.67;52.94;99364.39;1668314;86;21678;-56
2021/03/11 09:25:37;;;;;;;23.38;16.37;;;;;;;4.04;52.50;99358.97;1667115;86;21234;-58
2021/03/11 09:28:09;;;;;;;24.10;14.90;;;;;;;4.35;51.14;99358.48;1668193;86;21591;-58
2021/03/11 09:30:43;;;;;;;25.17;14.98;;;;;;;4.42;49.30;99362.95;1668215;86;21679;-66
2021/03/11 09:33:17;;;;;;;24.98;15.15;;;;;;;4.26;48.48;99355.03;1667912;86;21367;-59
2021/03/11 09:35:52;;;;;;;26.40;16.07;;;;;;;4.07;49.17;99358.68;1687448;84;21610;-58
2021/03/11 09:38:27;;;;;;;24.50;14.55;;;;;;;4.05;49.17;99359.30;1695841;84;21183;-58
2021/03/11 09:40:58;;;;;;;26.10;16.48;;;;;;;4.10;48.82;99360.96;1696187;84;21670;-59
2021/03/11 09:43:35;;;;;;;27.35;15.32;;;;;;;4.06;48.61;99358.81;1695910;84;21325;-58
2021/03/11 09:46:16;;;;;;;25.43;16.00;;;;;;;4.04;48.47;99357.67;1696021;84;21147;-58
2021/03/11 09:48:51;;;;;;;24.20;14.50;;;;;;;3.95;48.37;99349.44;1696050;84;21160;-62
2021/03/11 09:51:29;;;;;;;25.10;15.30;;;;;;;3.91;48.36;99355.47;1696218;84;21152;-61
2021/03/11 09:54:01;;;;;;;24.82;15.18;;;;;;;3.79;48.09;99352.78;1695868;84;21172;-58
2021/03/11 09:56:40;;;;;;;28.23;16.17;;;;;;;3.59;48.18;99342.18;1696193;84;21140;-57
2021/03/11 09:59:13;;;;;;;27.87;15.95;;;;;;;3.48;48.89;99355.45;1695897;84;21161;-55
2021/03/11 10:01:46;;;;;;;28.10;16.62;;;;;;;3.46;48.96;99356.91;1671138;84;21294;-58
2021/03/11 10:04:30;;;;;;;26.17;15.45;;;;;;;3.35;49.15;99342.31;1670479;84;21171;-52
2021/03/11 10:07:05;;;;;;;28.47;16.50;;;;;;;3.16;48.71;99347.20;1696442;84;21159;-57
2021/03/11 10:09:40;;;;;;;33.28;18.42;;;;;;;2.92;48.32;99348.23;1695785;84;21176;-49
2021/03/11 10:12:12;;;;;;;26.10;17.03;;;;;;;2.68;49.17;99345.36;1669917;84;21329;-55
2021/03/11 10:14:44;;;;;;;27.60;16.63;;;;;;;2.54;49.55;99333.66;1696032;84;21270;-53
2021/03/11 10:17:23;;;;;;;26.82;17.00;;;;;;;2.49;50.22;99330.67;1669020;84;21570;-64
2021/03/11 10:20:26;;;;;;;27.60;16.37;;;;;;;2.42;49.54;99323.93;1668337;86;21162;-53
2021/03/11 10:23:18;;;;;;;27.33;16.60;;;;;;;2.24;49.47;99310.86;1668377;84;21155;-52
2021/03/11 10:26:12;;;;;;;27.20;16.13;;;;;;;1.95;49.93;99314.02;1668334;86;21186;-67
2021/03/11 10:28:43;;;;;;;26.53;16.50;;;;;;;1.71;50.31;99305.40;1695864;82;21327;-62
2021/03/11 10:31:13;;;;;;;27.93;17.27;;;;;;;1.58;51.08;99303.92;1711272;84;21199;-59
2021/03/11 10:33:45;;;;;;;26.97;16.83;;;;;;;1.59;52.10;99297.76;1710770;82;21180;-58
2021/03/11 10:36:19;;;;;;;28.37;17.37;;;;;;;1.69;51.90;99304.73;1684529;85;21162;-60
2021/03/11 10:39:13;;;;;;;29.33;16.60;;;;;;;1.73;52.14;99300.90;1684824;85;21158;-57
2021/03/11 10:42:03;;;;;;;25.83;15.30;;;;;;;1.80;52.22;99294.98;1719731;82;21218;-61
2021/03/11 10:44:39;;;;;;;28.87;16.97;;;;;;;1.91;51.92;99286.69;1709278;82;21201;-55
2021/03/11 10:47:16;;;;;;;27.57;15.83;;;;;;;1.81;52.02;99295.32;1713110;82;21162;-56
2021/03/11 10:49:48;;;;;;;28.80;17.00;;;;;;;1.83;51.93;99291.27;1713143;84;21594;-55
2021/03/11 10:52:18;;;;;;;31.23;18.65;;;;;;;1.73;51.66;99286.13;1713280;84;21911;-58
2021/03/11 10:54:47;;;;;;;29.70;17.83;;;;;;;1.64;52.59;99294.75;1713147;84;21146;-54
2021/03/11 10:57:20;;;;;;;27.20;17.67;;;;;;;1.65;52.31;99284.69;1713634;84;21122;-55
2021/03/11 11:00:04;;;;;;;26.80;17.17;;;;;;;1.63;52.16;99293.11;1713017;84;21203;-57
2021/03/11 11:02:38;;;;;;;29.13;17.30;;;;;;;1.66;52.31;99288.10;1713161;84;21162;-59
2021/03/11 11:05:18;;;;;;;27.93;17.60;;;;;;;1.74;52.63;99280.44;1779869;79;24153;-56
2021/03/11 11:07:52;;;;;;;30.23;18.17;;;;;;;1.73;52.10;99285.30;1724301;82;21189;-60
2021/03/11 11:10:27;;;;;;;27.47;16.73;;;;;;;1.72;52.86;99288.39;1747063;81;21594;-57
2021/03/11 11:12:56;;;;;;;28.53;17.50;;;;;;;1.82;52.28;99288.34;1752907;82;21158;-57
2021/03/11 11:15:27;;;;;;;28.53;17.23;;;;;;;1.88;52.20;99285.17;1763516;80;21466;-59
2021/03/11 11:17:56;;;;;;;26.73;16.20;;;;;;;1.95;52.14;99285.42;1712513;84;21448;-59
2021/03/11 11:20:26;;;;;;;29.50;17.40;;;;;;;1.99;51.46;99288.08;1741763;82;21212;-53
2021/03/11 11:22:56;;;;;;;28.63;17.37;;;;;;;1.99;51.78;99288.90;1710806;84;21177;-56
2021/03/11 11:25:28;;;;;;;26.77;16.57;;;;;;;2.01;51.50;99279.20;1691958;85;21180;-59
2021/03/11 11:28:05;;;;;;;30.70;16.93;;;;;;;1.99;51.13;99279.80;1687309;84;21213;-60
2021/03/11 11:30:34;;;;;;;29.97;17.03;;;;;;;1.97;51.69;99279.13;1684126;84;21234;-60
2021/03/11 11:33:10;;;;;;;29.33;16.03;;;;;;;1.99;51.50;99269.88;1683230;85;21274;-51
2021/03/11 11:35:42;;;;;;;26.87;16.32;;;;;;;1.99;50.90;99277.69;1709587;83;21319;-57
2021/03/11 11:38:13;;;;;;;27.00;16.30;;;;;;;2.02;51.30;99258.73;1737237;82;21178;-56
2021/03/11 11:40:45;;;;;;;25.43;15.43;;;;;;;2.12;51.19;99257.36;1743563;80;21295;-57
2021/03/11 11:43:18;;;;;;;29.27;15.53;;;;;;;2.08;50.68;99259.94;1751181;80;21307;-61
2021/03/11 11:45:50;;;;;;;24.63;15.20;;;;;;;2.05;50.93;99253.70;1751072;82;21311;-59
2021/03/11 11:48:19;;;;;;;23.80;15.15;;;;;;;2.02;50.79;99247.51;1730880;82;21727;-59
2021/03/11 11:50:54;;;;;;;26.97;15.17;;;;;;;1.95;50.53;99244.66;1720992;83;21280;-54
2021/03/11 11:53:25;;;;;;;26.73;16.00;;;;;;;1.83;50.37;99233.59;1720856;83;21339;-62
2021/03/11 11:55:56;;;;;;;28.00;16.40;;;;;;;1.78;51.00;99239.73;1720691;83;21178;-57
2021/03/11 11:58:27;;;;;;;25.00;15.57;;;;;;;1.79;51.01;99230.16;1712740;83;21221;-52
2021/03/11 12:00:56;;;;;;;25.57;14.00;;;;;;;1.76;50.79;99237.73;1692121;85;21169;-58
2021/03/11 12:03:28;;;;;;;26.57;15.20;;;;;;;1.74;51.05;99234.95;1698409;82;21651;-57
2021/03/11 12:05:58;;;;;;;27.50;15.47;;;;;;;1.76;51.44;99222.14;1710273;84;21228;-52
2021/03/11 12:08:27;;;;;;;25.77;14.70;;;;;;;1.83;50.91;99218.00;1714172;82;21205;-55
2021/03/11 12:11:00;;;;;;;26.53;14.70;;;;;;;1.89;51.34;99212.71;1740151;82;21186;-56
2021/03/11 12:13:34;;;;;;;26.13;14.43;;;;;;;1.95;50.80;99208.72;1725585;82;21159;-55
2021/03/11 12:16:06;;;;;;;23.83;14.73;;;;;;;1.98;50.70;99200.64;1667625;86;21257;-57
2021/03/11 12:18:44;;;;;;;25.88;15.85;;;;;;;1.98;50.99;99200.64;1667786;85;21187;-51
2021/03/11 12:21:17;;;;;;;25.63;15.37;;;;;;;2.02;51.12;99195.02;1667520;85;21183;-56
2021/03/11 12:23:47;;;;;;;25.00;15.23;;;;;;;2.06;50.97;99192.92;1667574;85;21210;-53
2021/03/11 12:26:18;;;;;;;26.23;15.07;;;;;;;2.06;51.01;99183.83;1667295;86;21182;-58
2021/03/11 12:28:50;;;;;;;29.45;14.75;;;;;;;2.01;50.65;99182.17;1667924;86;21583;-55
2021/03/11 12:31:20;;;;;;;27.77;16.53;;;;;;;1.99;50.39;99173.19;1667278;86;21211;-57
2021/03/11 12:33:51;;;;;;;31.73;19.27;;;;;;;2.02;51.05;99174.70;1673731;82;21186;-54
2021/03/11 12:36:20;;;;;;;;;;;;;;;2.07;51.13;99173.78;1743006;82;21320;-57
2021/03/11 12:38:51;;;;;;;24.90;14.27;;;;;;;2.11;51.29;99175.11;1740224;82;20138;-52
2021/03/11 12:41:21;;;;;;;24.75;14.43;;;;;;;2.18;51.02;99169.69;1735315;82;21319;-58
2021/03/11 12:43:50;;;;;;;31.10;17.30;;;;;;;2.20;50.58;99167.74;1745336;82;21173;-56
2021/03/11 12:46:20;;;;;;;34.17;19.63;;;;;;;2.19;50.75;99157.49;1750625;82;21593;-55
2021/03/11 12:48:50;;;;;;;30.37;18.77;;;;;;;2.16;51.21;99152.09;1750632;82;21621;-59
2021/03/11 12:51:20;;;;;;;24.07;14.40;;;;;;;2.20;50.94;99155.22;1717814;82;21190;-56
2021/03/11 12:53:51;;;;;;;25.30;13.50;;;;;;;2.19;50.37;99153.11;1717966;83;21182;-59
2021/03/11 12:56:24;;;;;;;26.13;14.73;;;;;;;2.11;49.98;99150.40;1717790;83;21166;-57
2021/03/11 12:58:53;;;;;;;24.15;14.98;;;;;;;2.05;50.84;99142.70;1692538;83;21177;-57
2021/03/11 13:01:25;;;;;;;24.67;13.57;;;;;;;2.04;50.27;99144.97;1716720;83;21196;-56
2021/03/11 13:03:55;;;;;;;24.73;14.47;;;;;;;2.06;50.41;99146.12;1716295;83;21166;-57
2021/03/11 13:06:26;;;;;;;22.85;13.32;;;;;;;2.07;51.08;99147.30;1698577;84;21633;-57
2021/03/11 13:08:55;;;;;;;21.87;12.33;;;;;;;2.06;50.48;99139.13;1675820;82;21274;-55
2021/03/11 13:11:25;;;;;;;23.37;13.57;;;;;;;2.02;50.09;99139.59;1666827;86;21365;-56
2021/03/11 13:13:55;;;;;;;;;;;;;;;1.99;50.22;99140.69;1669659;85;21793;-54
2021/03/11 13:16:25;;;;;;;20.17;11.70;;;;;;;1.95;50.45;99139.36;1709299;82;20287;-60
2021/03/11 13:18:56;;;;;;;21.57;11.93;;;;;;;1.93;50.69;99133.95;1710275;84;21146;-56
2021/03/11 13:21:28;;;;;;;22.70;12.33;;;;;;;1.93;50.51;99132.17;1710053;84;21714;-55
2021/03/11 13:23:59;;;;;;;22.37;12.40;;;;;;;1.85;49.69;99126.41;1690469;84;21206;-56
2021/03/11 13:26:28;;;;;;;22.70;12.60;;;;;;;1.76;49.98;99122.07;1709782;84;21563;-56
2021/03/11 13:29:01;;;;;;;21.83;13.07;;;;;;;1.72;50.37;99118.14;1709889;84;21226;-53
2021/03/11 13:31:30;;;;;;;23.42;12.85;;;;;;;1.69;50.48;99111.92;1710146;84;21154;-53
2021/03/11 13:34:01;;;;;;;22.83;12.07;;;;;;;1.68;50.95;99118.09;1713038;82;21177;-57
2021/03/11 13:36:31;;;;;;;21.87;11.97;;;;;;;1.62;50.78;99112.17;1714926;83;21201;-56
2021/03/11 13:39:01;;;;;;;21.47;11.37;;;;;;;1.63;51.10;99098.21;1710256;84;21194;-64
2021/03/11 13:41:35;;;;;;;22.47;11.37;;;;;;;1.64;51.11;99099.84;1709985;84;21170;-59
2021/03/11 13:44:12;;;;;;;22.70;10.70;;;;;;;1.56;49.98;99100.58;1742215;82;21300;-62
2021/03/11 13:46:42;;;;;;;21.20;11.80;;;;;;;1.44;49.62;99093.11;1745229;82;21570;-58
2021/03/11 13:49:13;;;;;;;;;;;;;;;1.34;50.28;99090.55;1747405;81;21194;-61
2021/03/11 13:51:42;;;;;;;22.87;12.23;;;;;;;1.28;50.26;99081.55;1729179;82;20162;-53
2021/03/11 13:54:12;;;;;;;23.67;12.27;;;;;;;1.13;50.06;99082.14;1744461;82;21166;-58
2021/03/11 13:56:41;;;;;;;22.33;12.20;;;;;;;1.03;50.94;99088.20;1745177;82;21569;-56
2021/03/11 13:59:10;;;;;;;23.57;12.23;;;;;;;1.06;51.63;99076.70;1744974;82;21235;-54
2021/03/11 14:01:40;;;;;;;25.63;14.37;;;;;;;1.12;51.76;99074.02;1745037;82;21601;-53
2021/03/11 14:04:13;;;;;;;25.77;13.73;;;;;;;1.17;51.71;99066.15;1743396;82;21312;-57
2021/03/11 14:06:47;;;;;;;23.50;12.67;;;;;;;1.18;51.32;99061.77;1741083;82;21153;-56
2021/03/11 14:09:17;;;;;;;25.43;14.77;;;;;;;1.18;51.05;99054.80;1745219;81;21677;-54
2021/03/11 14:11:49;;;;;;;25.37;13.07;;;;;;;1.18;51.57;99053.98;1745099;82;21340;-53
2021/03/11 14:14:19;;;;;;;23.67;13.22;;;;;;;1.18;51.31;99047.00;1744846;82;21193;-64
2021/03/11 14:16:48;;;;;;;25.97;14.17;;;;;;;1.11;51.40;99049.84;1719370;82;21343;-56
2021/03/11 14:19:24;;;;;;;;;;;;;;;1.05;52.00;99042.63;1704403;83;21767;-55
2021/03/11 14:21:52;;;;;;;27.20;13.53;;;;;;;1.02;51.53;99035.92;1689394;85;20468;-55
2021/03/11 14:24:22;;;;;;;26.97;13.53;;;;;;;0.91;51.93;99030.91;1688497;85;21174;-57
2021/03/11 14:26:54;;;;;;;26.13;14.83;;;;;;;0.90;52.50;99033.16;1688149;83;21158;-63
2021/03/11 14:29:24;;;;;;;28.83;14.90;;;;;;;0.90;52.81;99025.86;1711447;82;21624;-57
2021/03/11 14:31:53;;;;;;;23.93;14.00;;;;;;;0.88;52.35;99018.70;1720582;83;21208;-57
2021/03/11 14:34:22;;;;;;;25.53;14.70;;;;;;;0.82;52.62;99011.01;1717939;82;21170;-61
2021/03/11 14:36:53;;;;;;;25.72;14.70;;;;;;;0.80;52.94;99007.72;1717950;83;21695;-54
2021/03/11 14:39:23;;;;;;;28.20;16.47;;;;;;;0.80;52.76;99001.23;1717672;83;21201;-56
2021/03/11 14:41:52;;;;;;;27.47;15.83;;;;;;;0.77;52.94;98994.56;1720265;82;21237;-51
2021/03/11 14:44:22;;;;;;;26.73;15.67;;;;;;;0.75;52.46;98992.59;1720929;83;21208;-59
2021/03/11 14:46:51;;;;;;;26.33;14.20;;;;;;;0.70;51.99;98983.60;1721074;82;21604;-58
2021/03/11 14:49:24;;;;;;;24.50;13.87;;;;;;;0.65;52.36;98972.34;1720549;83;21156;-56
2021/03/11 14:51:54;;;;;;;26.87;14.33;;;;;;;0.61;52.34;98968.87;1720632;83;21192;-58
2021/03/11 14:54:23;;;;;;;27.77;15.27;;;;;;;0.56;52.84;98972.36;1720719;82;21884;-53
2021/03/11 14:56:53;;;;;;;27.20;15.67;;;;;;;0.50;53.34;98967.26;1720795;83;21192;-55
2021/03/11 14:59:27;;;;;;;27.82;15.83;;;;;;;0.50;53.74;98958.18;1720299;83;21197;-57
2021/03/11 15:01:55;;;;;;;26.23;14.23;;;;;;;0.46;54.22;98962.85;1721060;83;21172;-55
